Time;durP1;ratioP1;P1;durP2;ratioP2;P2;SDS_P1;SDS_P2;PMS_P1;PMS_P2;Temp;Humidity;BMP_temperature;BMP_pressure;BME280_temperature;BME280_humidity;BME280_pressure;Samples;Min_cycle;Max_cycle;Signal;HPM_P1;HPM_P2
2023/04/12 00:02:05;;;;;;;3.40;3.10;;;;;;;20.31;46.46;98748.58;104670;1251;72121;-64
2023/04/12 00:04:34;;;;;;;3.70;3.10;;;;;;;20.30;46.43;98741.54;104646;1251;60741;-64
2023/04/12 00:07:04;;;;;;;3.30;3.00;;;;;;;20.33;45.83;98740.42;104650;1256;60488;-64
2023/04/12 00:09:35;;;;;;;4.00;3.60;;;;;;;20.30;45.73;98741.00;104696;1251;73146;-64
2023/04/12 00:12:05;;;;;;;4.00;3.60;;;;;;;20.20;45.97;98742.09;104498;1266;70662;-64
2023/04/12 00:14:33;;;;;;;3.80;3.50;;;;;;;20.17;45.94;98738.05;104593;1257;72676;-64
2023/04/12 00:17:02;;;;;;;4.40;4.00;;;;;;;20.12;46.30;98738.33;104455;1257;61926;-65
2023/04/12 00:19:30;;;;;;;3.90;3.50;;;;;;;20.08;46.03;98740.14;104423;1273;59577;-65
2023/04/12 00:22:03;;;;;;;7.20;4.00;;;;;;;20.05;46.77;98736.48;104718;1251;74757;-65
2023/04/12 00:24:32;;;;;;;5.20;3.80;;;;;;;20.01;46.48;98731.92;104473;1254;70162;-65
2023/04/12 00:27:01;;;;;;;5.60;4.00;;;;;;;20.00;46.72;98733.39;104436;1263;71538;-66
2023/04/12 00:29:36;;;;;;;5.30;4.70;;;;;;;20.02;46.63;98731.13;104391;1252;61439;-62
2023/04/12 00:32:05;;;;;;;6.60;5.20;;;;;;;19.97;45.82;98723.77;104473;1257;60530;-62
2023/04/12 00:34:34;;;;;;;7.90;5.20;;;;;;;19.94;45.88;98726.52;104413;1254;74727;-62
2023/04/12 00:37:02;;;;;;;6.90;5.20;;;;;;;19.96;46.39;98723.68;104605;1254;68678;-62
2023/04/12 00:39:32;;;;;;;8.10;4.90;;;;;;;19.96;46.42;98724.75;105732;1254;71868;-62
2023/04/12 00:42:07;;;;;;;7.10;5.80;;;;;;;19.91;46.26;98719.19;104570;1250;61375;-61
2023/04/12 00:44:36;;;;;;;7.50;5.30;;;;;;;19.84;46.75;98717.57;105052;1251;60458;-62
2023/04/12 00:47:05;;;;;;;5.90;5.00;;;;;;;19.73;47.07;98713.96;104586;1256;73967;-61
2023/04/12 00:49:36;;;;;;;6.70;5.00;;;;;;;19.74;47.24;98712.60;104595;1256;69962;-63
2023/04/12 00:52:07;;;;;;;9.30;5.80;;;;;;;19.71;47.56;98710.04;104563;1251;71849;-62
2023/04/12 00:54:41;;;;;;;6.20;5.30;;;;;;;19.71;47.80;98706.83;104545;1251;61124;-62
2023/04/12 00:57:12;;;;;;;10.10;5.50;;;;;;;19.66;48.23;98706.21;104363;1263;60262;-61
2023/04/12 00:59:40;;;;;;;10.90;5.70;;;;;;;19.57;47.60;98705.13;104513;1257;73995;-62
2023/04/12 01:02:09;;;;;;;7.00;6.30;;;;;;;19.51;47.69;98704.64;104312;1257;69531;-62
2023/04/12 01:04:42;;;;;;;8.00;5.40;;;;;;;19.47;48.38;98698.78;104568;1266;71714;-66
2023/04/12 01:07:24;;;;;;;6.40;5.80;;;;;;;19.49;48.54;98700.16;104652;1254;61382;-67
2023/04/12 01:10:07;;;;;;;9.30;6.30;;;;;;;19.45;48.90;98695.57;104353;1264;60672;-65
2023/04/12 01:12:38;;;;;;;7.20;5.80;;;;;;;19.43;48.31;98696.50;104517;1255;73038;-67
2023/04/12 01:15:12;;;;;;;6.50;5.60;;;;;;;19.41;48.66;98694.23;104301;1264;70296;-66
2023/04/12 01:18:13;;;;;;;6.80;6.00;;;;;;;19.43;49.16;98688.48;104308;1256;72106;-65
2023/04/12 01:21:05;;;;;;;6.90;5.60;;;;;;;19.43;49.40;98684.33;104414;1266;61880;-67
2023/04/12 01:23:43;;;;;;;7.30;5.50;;;;;;;19.44;49.65;98683.63;104424;1255;60584;-66
2023/04/12 01:26:35;;;;;;;6.90;6.10;;;;;;;19.44;49.05;98674.95;104303;1263;73220;-67
2023/04/12 01:29:09;;;;;;;6.10;5.50;;;;;;;19.39;49.16;98672.55;104462;1257;69097;-67
2023/04/12 01:31:49;;;;;;;7.00;6.20;;;;;;;19.36;49.52;98667.15;104433;1251;72840;-68
2023/04/12 01:34:19;;;;;;;6.90;6.10;;;;;;;19.29;49.45;98661.02;104615;1251;62450;-68
2023/04/12 01:36:48;;;;;;;6.30;5.70;;;;;;;19.23;49.84;98657.00;104556;1263;60462;-67
2023/04/12 01:39:16;;;;;;;10.20;6.20;;;;;;;19.30;49.45;98654.58;104421;1259;74224;-67
2023/04/12 01:41:47;;;;;;;6.90;5.90;;;;;;;19.31;49.22;98648.78;104814;1256;68751;-67
2023/04/12 01:44:16;;;;;;;8.80;6.90;;;;;;;19.28;48.85;98645.15;104442;1251;71693;-67
2023/04/12 01:46:46;;;;;;;6.80;6.10;;;;;;;19.22;49.20;98642.87;104382;1252;60992;-67
2023/04/12 01:49:15;;;;;;;10.30;7.00;;;;;;;19.17;49.68;98640.14;104339;1261;60537;-67
2023/04/12 01:52:06;;;;;;;10.60;7.50;;;;;;;19.13;48.80;98634.31;104478;1267;73319;-67
2023/04/12 01:54:36;;;;;;;8.00;6.30;;;;;;;19.07;49.66;98632.20;104566;1254;70254;-66
2023/04/12 01:57:08;;;;;;;9.00;7.30;;;;;;;18.96;49.82;98626.51;104437;1251;72998;-67
2023/04/12 01:59:39;;;;;;;7.70;6.00;;;;;;;18.98;49.61;98626.79;104440;1252;62059;-66
2023/04/12 02:02:12;;;;;;;11.30;7.00;;;;;;;18.98;49.92;98626.84;104638;1260;60472;-66
2023/04/12 02:04:41;;;;;;;11.00;7.90;;;;;;;18.94;49.83;98616.39;104378;1256;74025;-67
2023/04/12 02:07:10;;;;;;;8.80;7.10;;;;;;;18.85;50.13;98614.74;104332;1260;69232;-66
2023/04/12 02:09:50;;;;;;;7.40;6.60;;;;;;;18.82;51.99;98612.29;104430;1260;72928;-66
2023/04/12 02:12:21;;;;;;;8.30;6.90;;;;;;;18.89;51.56;98604.61;104582;1262;61608;-66
2023/04/12 02:14:50;;;;;;;7.70;6.70;;;;;;;18.92;50.82;98603.64;104533;1256;60444;-66
2023/04/12 02:17:24;;;;;;;7.70;6.90;;;;;;;18.90;51.70;98601.85;104368;1256;74535;-67
2023/04/12 02:19:56;;;;;;;7.30;6.60;;;;;;;18.84;50.95;98598.86;104374;1252;69217;-67
2023/04/12 02:22:25;;;;;;;7.90;7.10;;;;;;;18.73;50.93;98597.90;104824;1263;73128;-67
2023/04/12 02:25:00;;;;;;;8.90;6.80;;;;;;;18.71;52.35;98596.63;104384;1251;61088;-67
2023/04/12 02:27:29;;;;;;;8.30;7.10;;;;;;;18.73;51.61;98593.09;104684;1253;60535;-66
2023/04/12 02:29:58;;;;;;;7.90;6.50;;;;;;;18.72;51.43;98592.12;104949;1261;74378;-70
2023/04/12 02:32:29;;;;;;;9.00;7.10;;;;;;;18.66;51.67;98593.67;104361;1269;69528;-66
2023/04/12 02:34:59;;;;;;;7.50;6.80;;;;;;;18.64;52.44;98592.31;104385;1267;71720;-66
2023/04/12 02:37:28;;;;;;;7.90;7.20;;;;;;;18.72;53.03;98588.17;104775;1256;61972;-67
2023/04/12 02:39:57;;;;;;;8.60;7.10;;;;;;;18.78;52.31;98583.02;104421;1257;59882;-66
2023/04/12 02:42:26;;;;;;;7.90;6.30;;;;;;;18.74;52.50;98587.84;104620;1255;73242;-65
2023/04/12 02:44:55;;;;;;;7.50;6.80;;;;;;;18.68;52.31;98586.60;104421;1263;69017;-66
2023/04/12 02:47:28;;;;;;;8.20;7.40;;;;;;;18.66;52.27;98583.56;104391;1260;72100;-67
2023/04/12 02:49:58;;;;;;;6.60;6.00;;;;;;;18.74;52.48;98580.24;104745;1256;61508;-66
2023/04/12 02:52:28;;;;;;;6.50;5.20;;;;;;;18.76;52.50;98574.34;104287;1252;60525;-66
2023/04/12 02:55:02;;;;;;;8.10;5.60;;;;;;;18.75;53.16;98570.31;104420;1257;74498;-66
2023/04/12 02:57:31;;;;;;;7.00;6.10;;;;;;;18.80;52.36;98571.14;104423;1256;68993;-66
2023/04/12 03:00:14;;;;;;;6.70;5.60;;;;;;;18.79;52.13;98568.93;104499;1256;73575;-66
2023/04/12 03:03:01;;;;;;;5.80;5.10;;;;;;;18.82;53.33;98568.61;104362;1257;61768;-66
2023/04/12 03:05:31;;;;;;;6.00;5.30;;;;;;;18.84;52.98;98565.63;104320;1252;60513;-66
2023/04/12 03:08:00;;;;;;;5.00;4.60;;;;;;;18.86;53.99;98566.53;104408;1267;72850;-66
2023/04/12 03:10:41;;;;;;;7.20;5.40;;;;;;;18.87;52.96;98560.70;104611;1257;68927;-66
2023/04/12 03:13:10;;;;;;;5.20;4.70;;;;;;;18.87;53.50;98562.70;104384;1251;72177;-67
2023/04/12 03:15:46;;;;;;;5.40;4.80;;;;;;;18.88;53.11;98560.65;104518;1252;60971;-71
2023/04/12 03:18:20;;;;;;;6.40;5.30;;;;;;;18.90;53.36;98560.88;104398;1262;60552;-67
2023/04/12 03:20:51;;;;;;;8.20;5.60;;;;;;;18.88;53.05;98557.79;104383;1261;73802;-66
2023/04/12 03:23:20;;;;;;;6.50;4.70;;;;;;;18.83;53.19;98556.98;104372;1267;70048;-66
2023/04/12 03:25:55;;;;;;;4.90;4.50;;;;;;;18.78;53.64;98559.95;104362;1259;72788;-67
2023/04/12 03:28:38;;;;;;;5.10;4.70;;;;;;;18.79;54.10;98553.84;104490;1252;61142;-67
2023/04/12 03:31:07;;;;;;;5.70;4.20;;;;;;;18.76;54.55;98554.52;104646;1252;60437;-69
2023/04/12 03:33:45;;;;;;;6.50;4.40;;;;;;;18.79;54.49;98552.11;104346;1257;73150;-66
2023/04/12 03:36:22;;;;;;;4.50;4.10;;;;;;;18.81;54.67;98552.02;104297;1256;69219;-66
2023/04/12 03:39:03;;;;;;;6.90;4.50;;;;;;;18.85;54.79;98545.86;104347;1257;73019;-66
2023/04/12 03:41:37;;;;;;;5.10;4.00;;;;;;;18.88;55.16;98550.54;104594;1268;61032;-68
2023/04/12 03:46:10;;;;;;;4.50;4.00;;;;;;;18.28;65.17;98541.79;101302;1294;602848;-66
2023/04/12 03:48:39;;;;;;;5.00;4.50;;;;;;;19.64;54.44;98540.27;103897;1269;62157;-68
2023/04/12 03:51:11;;;;;;;4.50;4.00;;;;;;;19.65;54.15;98539.09;103787;1263;60489;-66
2023/04/12 03:53:43;;;;;;;6.00;4.10;;;;;;;19.58;54.71;98535.28;103518;1271;71782;-62
2023/04/12 03:56:15;;;;;;;5.50;4.40;;;;;;;19.52;54.34;98540.46;104217;1269;69024;-62
2023/04/12 03:58:46;;;;;;;4.50;4.10;;;;;;;19.52;54.05;98537.97;104273;1258;294651;-62
2023/04/12 04:01:16;;;;;;;4.70;4.20;;;;;;;19.49;54.09;98541.20;104231;1259;61508;-64
2023/04/12 04:03:46;;;;;;;4.40;3.70;;;;;;;19.54;54.64;98541.86;104983;1259;60897;-59
2023/04/12 04:06:23;;;;;;;4.90;4.50;;;;;;;19.55;53.79;98539.73;104455;1258;71531;-61
2023/04/12 04:08:56;;;;;;;5.50;4.40;;;;;;;19.51;53.70;98534.76;104361;1257;69260;-63
2023/04/12 04:11:26;;;;;;;4.20;3.90;;;;;;;19.46;54.48;98540.70;104394;1259;72396;-62
2023/04/12 04:14:00;;;;;;;4.30;4.00;;;;;;;19.50;54.23;98538.21;104606;1253;60615;-63
2023/04/12 04:16:29;;;;;;;4.60;4.10;;;;;;;19.52;54.39;98537.33;104291;1267;59852;-63
2023/04/12 04:18:59;;;;;;;5.20;4.30;;;;;;;19.51;54.53;98539.77;104323;1259;73396;-64
2023/04/12 04:21:29;;;;;;;5.20;4.80;;;;;;;19.49;53.91;98541.48;104514;1258;68629;-62
2023/04/12 04:23:59;;;;;;;7.20;5.30;;;;;;;19.52;53.87;98539.23;104441;1256;72198;-62
2023/04/12 04:26:32;;;;;;;5.70;4.90;;;;;;;19.51;54.73;98534.23;104413;1259;61300;-63
2023/04/12 04:29:10;;;;;;;5.30;4.90;;;;;;;19.49;54.90;98537.94;104298;1259;59845;-63
2023/04/12 04:31:39;;;;;;;5.20;4.80;;;;;;;19.51;54.52;98537.06;104472;1257;72985;-62
2023/04/12 04:34:12;;;;;;;5.70;5.10;;;;;;;19.50;55.22;98538.73;104634;1257;68994;-62
2023/04/12 04:36:43;;;;;;;6.70;6.00;;;;;;;19.52;54.38;98535.56;104271;1258;72857;-63
2023/04/12 04:39:14;;;;;;;5.90;5.10;;;;;;;19.41;54.10;98528.77;104344;1254;60750;-62
2023/04/12 04:41:45;;;;;;;8.60;5.70;;;;;;;19.40;54.92;98537.44;107955;1253;60936;-64
2023/04/12 04:44:22;;;;;;;5.60;4.90;;;;;;;19.46;55.47;98534.53;105858;1256;72524;-62
2023/04/12 04:46:57;;;;;;;5.50;5.00;;;;;;;19.47;55.26;98535.45;104288;1257;69075;-61
2023/04/12 04:49:32;;;;;;;4.80;4.40;;;;;;;19.51;55.34;98533.89;104291;1256;72332;-62
2023/04/12 04:52:19;;;;;;;5.10;4.30;;;;;;;19.51;55.77;98537.61;104462;1259;62067;-63
2023/04/12 04:54:48;;;;;;;6.20;5.00;;;;;;;19.51;54.79;98537.79;104285;1254;60117;-60
2023/04/12 04:57:21;;;;;;;4.60;4.20;;;;;;;19.46;55.20;98533.30;104236;1256;73338;-61
2023/04/12 04:59:50;;;;;;;5.50;5.00;;;;;;;19.45;54.72;98535.52;104294;1259;69676;-61
2023/04/12 05:02:20;;;;;;;4.20;3.80;;;;;;;19.46;54.35;98534.83;104658;1256;72906;-62
2023/04/12 05:04:50;;;;;;;4.60;4.00;;;;;;;19.46;54.20;98533.79;104412;1259;61122;-63
2023/04/12 05:07:22;;;;;;;4.10;3.70;;;;;;;19.45;54.33;98535.49;104301;1256;59724;-62
2023/04/12 05:09:51;;;;;;;4.10;3.70;;;;;;;19.46;54.62;98536.45;104402;1265;73109;-66
2023/04/12 05:12:25;;;;;;;4.20;3.50;;;;;;;19.57;54.60;98532.56;104445;1260;68650;-62
2023/04/12 05:14:56;;;;;;;3.40;3.10;;;;;;;19.62;53.99;98531.92;104287;1259;72144;-62
2023/04/12 05:17:38;;;;;;;4.20;3.80;;;;;;;19.61;54.72;98527.40;104306;1259;61079;-60
2023/04/12 05:20:09;;;;;;;4.10;3.80;;;;;;;19.56;54.20;98529.85;104345;1263;59702;-60
2023/04/12 05:22:39;;;;;;;3.90;3.50;;;;;;;19.50;54.90;98532.15;104295;1269;73145;-60
2023/04/12 05:25:08;;;;;;;3.90;3.50;;;;;;;19.47;55.47;98524.79;104403;1259;68743;-61
2023/04/12 05:27:43;;;;;;;3.60;3.30;;;;;;;19.52;55.47;98522.58;104539;1268;73538;-61
2023/04/12 05:30:14;;;;;;;5.10;3.40;;;;;;;19.53;54.61;98521.78;104481;1253;60903;-61
2023/04/12 05:32:46;;;;;;;4.00;3.40;;;;;;;19.54;55.38;98522.70;104305;1262;59435;-61
2023/04/12 05:35:17;;;;;;;4.50;3.40;;;;;;;19.54;55.53;98517.17;104347;1265;74671;-60
2023/04/12 05:37:45;;;;;;;3.10;2.80;;;;;;;19.57;55.73;98517.23;104682;1263;69454;-60
2023/04/12 05:40:15;;;;;;;3.80;3.40;;;;;;;19.59;55.44;98514.19;104567;1253;73003;-60
2023/04/12 05:42:44;;;;;;;4.60;3.70;;;;;;;19.61;55.69;98507.58;104343;1256;61288;-61
2023/04/12 05:45:14;;;;;;;4.00;3.60;;;;;;;19.62;55.39;98504.83;104555;1259;60106;-61
2023/04/12 05:47:44;;;;;;;3.70;3.40;;;;;;;19.61;55.11;98503.02;104350;1257;73290;-61
2023/04/12 05:50:13;;;;;;;3.10;2.90;;;;;;;19.56;55.41;98506.19;104628;1257;69780;-61
2023/04/12 05:52:43;;;;;;;4.00;3.60;;;;;;;19.54;55.77;98503.36;104314;1265;73110;-61
2023/04/12 05:55:13;;;;;;;3.70;3.30;;;;;;;19.59;55.34;98495.79;104370;1257;61652;-61
2023/04/12 05:57:43;;;;;;;3.20;2.90;;;;;;;19.62;55.57;98498.12;104459;1253;59641;-61
2023/04/12 06:00:16;;;;;;;3.90;3.00;;;;;;;19.64;56.31;98497.18;104314;1263;73553;-61
2023/04/12 06:02:46;;;;;;;3.30;2.80;;;;;;;19.66;55.63;98498.09;104402;1267;69773;-61
2023/04/12 06:05:16;;;;;;;3.50;3.20;;;;;;;19.64;55.88;98494.17;104572;1260;72104;-61
2023/04/12 06:07:47;;;;;;;3.20;2.80;;;;;;;19.74;56.26;98491.57;104309;1255;62041;-60
2023/04/12 06:10:15;;;;;;;2.80;2.60;;;;;;;19.80;55.76;98492.12;104419;1259;60145;-61
2023/04/12 06:12:48;;;;;;;3.00;2.70;;;;;;;19.79;56.03;98493.59;104259;1257;72926;-63
2023/04/12 06:15:21;;;;;;;2.90;2.50;;;;;;;19.81;56.02;98489.85;104312;1257;68555;-61
2023/04/12 06:17:56;;;;;;;2.60;2.40;;;;;;;19.82;56.29;98488.21;104309;1259;72615;-61
2023/04/12 06:20:25;;;;;;;3.10;2.80;;;;;;;19.88;55.67;98487.38;104219;1254;60866;-61
2023/04/12 06:22:56;;;;;;;3.00;2.60;;;;;;;19.82;55.81;98488.45;104343;1256;60355;-61
2023/04/12 06:25:26;;;;;;;2.70;2.50;;;;;;;19.78;56.24;98480.41;104389;1272;72352;-61
2023/04/12 06:28:03;;;;;;;2.60;2.40;;;;;;;19.80;56.55;98484.06;104367;1259;68972;-62
2023/04/12 06:30:35;;;;;;;2.90;2.40;;;;;;;19.81;56.61;98482.91;104507;1259;71992;-61
2023/04/12 06:33:03;;;;;;;2.20;2.00;;;;;;;19.82;57.09;98478.94;104478;1263;61095;-60
2023/04/12 06:35:32;;;;;;;2.50;2.30;;;;;;;19.85;56.85;98475.21;104326;1257;59922;-62
2023/04/12 06:38:02;;;;;;;2.50;2.30;;;;;;;19.90;56.59;98476.31;104291;1254;72333;-61
2023/04/12 06:40:39;;;;;;;2.60;2.40;;;;;;;19.95;56.46;98473.70;104557;1266;69635;-61
2023/04/12 06:43:08;;;;;;;2.40;2.20;;;;;;;20.03;56.07;98470.41;104885;1256;73037;-61
2023/04/12 06:45:37;;;;;;;2.60;2.40;;;;;;;20.08;55.90;98472.77;104567;1255;61219;-62
2023/04/12 06:48:05;;;;;;;2.80;2.50;;;;;;;20.07;56.31;98471.06;104472;1251;60648;-61
2023/04/12 06:50:34;;;;;;;2.60;2.40;;;;;;;20.13;56.42;98474.80;104320;1251;72041;-63
2023/04/12 06:53:03;;;;;;;3.20;2.20;;;;;;;20.20;55.09;98472.11;104294;1263;69149;-61
2023/04/12 06:55:32;;;;;;;2.60;2.40;;;;;;;20.18;55.36;98471.38;104265;1267;71549;-61
2023/04/12 06:58:00;;;;;;;3.50;2.30;;;;;;;20.12;56.09;98475.77;104442;1251;61576;-61
2023/04/12 07:00:30;;;;;;;2.30;2.20;;;;;;;20.14;56.37;98474.82;104426;1257;60516;-60
2023/04/12 07:03:00;;;;;;;2.80;2.60;;;;;;;20.17;55.63;98468.33;104397;1256;72741;-61
2023/04/12 07:05:29;;;;;;;2.50;2.30;;;;;;;20.14;56.26;98468.46;104286;1274;68759;-61
2023/04/12 07:07:59;;;;;;;2.30;2.10;;;;;;;20.13;56.16;98467.23;104298;1262;72541;-61
2023/04/12 07:10:28;;;;;;;2.20;2.00;;;;;;;20.16;56.02;98464.48;104367;1261;62092;-61
2023/04/12 07:13:01;;;;;;;2.90;1.90;;;;;;;20.18;56.41;98463.42;104320;1256;59965;-64
2023/04/12 07:15:32;;;;;;;2.30;2.00;;;;;;;20.22;56.89;98460.86;104319;1270;73399;-61
2023/04/12 07:18:01;;;;;;;2.00;1.90;;;;;;;20.22;56.57;98461.59;104241;1265;68979;-60
2023/04/12 07:20:29;;;;;;;2.10;1.90;;;;;;;20.18;56.47;98456.83;104275;1255;72675;-61
2023/04/12 07:22:59;;;;;;;2.00;1.70;;;;;;;20.20;56.24;98457.64;104362;1252;60726;-62
2023/04/12 07:25:28;;;;;;;1.90;1.80;;;;;;;20.20;57.07;98455.88;104381;1274;60229;-64
2023/04/12 07:27:57;;;;;;;2.40;2.00;;;;;;;20.27;56.89;98454.34;104271;1267;74279;-62
2023/04/12 07:30:26;;;;;;;2.20;2.00;;;;;;;20.31;56.90;98453.92;104379;1256;68797;-61
2023/04/12 07:32:55;;;;;;;2.00;1.90;;;;;;;20.25;57.49;98454.31;104396;1256;72903;-61
2023/04/12 07:35:41;;;;;;;1.90;1.80;;;;;;;20.28;57.27;98451.70;104404;1266;61156;-63
2023/04/12 07:38:10;;;;;;;3.20;2.20;;;;;;;20.30;57.28;98453.98;104367;1256;59778;-62
2023/04/12 07:40:38;;;;;;;4.20;2.30;;;;;;;20.32;56.83;98449.88;104435;1264;73205;-62
2023/04/12 07:43:09;;;;;;;2.00;1.90;;;;;;;20.33;56.74;98449.55;104351;1267;68837;-62
2023/04/12 07:45:38;;;;;;;2.20;2.00;;;;;;;20.34;56.66;98454.43;104443;1256;73471;-63
2023/04/12 07:48:07;;;;;;;1.80;1.70;;;;;;;20.32;57.08;98453.63;104448;1260;61124;-62
2023/04/12 07:50:38;;;;;;;2.20;2.00;;;;;;;20.35;57.83;98454.71;104416;1254;60070;-62
2023/04/12 07:53:26;;;;;;;2.50;2.30;;;;;;;20.33;57.77;98453.17;104298;1274;72584;-62
2023/04/12 07:55:55;;;;;;;1.90;1.80;;;;;;;20.37;58.29;98452.19;104315;1263;70142;-63
2023/04/12 07:58:24;;;;;;;2.00;1.80;;;;;;;20.44;57.79;98454.53;104366;1257;72939;-62
2023/04/12 08:00:53;;;;;;;2.40;2.20;;;;;;;20.49;57.51;98453.63;104333;1250;62010;-61
2023/04/12 08:03:21;;;;;;;1.90;1.70;;;;;;;20.52;56.95;98455.28;104285;1272;60444;-62
2023/04/12 08:05:52;;;;;;;2.00;1.80;;;;;;;20.58;57.33;98450.69;104394;1266;73938;-62
2023/04/12 08:08:24;;;;;;;2.40;2.20;;;;;;;20.65;57.11;98449.71;104388;1264;68789;-62
2023/04/12 08:10:54;;;;;;;2.00;1.90;;;;;;;20.62;57.11;98450.56;104318;1273;72872;-62
2023/04/12 08:13:22;;;;;;;1.80;1.70;;;;;;;20.68;57.49;98449.92;104362;1267;61042;-63
2023/04/12 08:15:54;;;;;;;2.10;1.90;;;;;;;20.70;57.44;98449.23;104404;1251;60610;-64
2023/04/12 08:18:23;;;;;;;1.90;1.70;;;;;;;20.66;57.42;98444.83;104350;1260;73722;-62
2023/04/12 08:20:51;;;;;;;2.10;1.60;;;;;;;20.60;57.33;98443.79;104331;1255;70457;-62
2023/04/12 08:23:22;;;;;;;1.70;1.60;;;;;;;20.63;57.93;98446.23;104354;1258;72658;-61
2023/04/12 08:25:58;;;;;;;2.00;1.90;;;;;;;20.69;58.05;98440.59;104377;1266;62213;-60
2023/04/12 08:28:27;;;;;;;1.90;1.80;;;;;;;20.76;57.87;98440.80;104241;1266;61682;-61
2023/04/12 08:30:57;;;;;;;1.70;1.50;;;;;;;20.77;57.66;98435.52;104368;1256;73661;-61
2023/04/12 08:33:26;;;;;;;1.70;1.60;;;;;;;20.81;57.90;98441.91;104260;1256;68871;-60
2023/04/12 08:35:55;;;;;;;3.70;1.70;;;;;;;20.82;58.20;98435.90;104329;1256;72815;-61
2023/04/12 08:38:24;;;;;;;1.70;1.50;;;;;;;20.87;57.74;98440.50;104289;1255;61417;-61
2023/04/12 08:41:12;;;;;;;1.60;1.50;;;;;;;20.77;57.46;98433.72;104421;1255;60465;-61
2023/04/12 08:43:46;;;;;;;1.90;1.60;;;;;;;20.70;57.44;98429.70;104363;1257;73379;-61
2023/04/12 08:46:15;;;;;;;2.40;1.80;;;;;;;20.75;58.44;98431.14;104362;1255;69701;-60
2023/04/12 08:48:48;;;;;;;1.70;1.50;;;;;;;20.74;58.31;98426.92;104398;1257;73706;-61
2023/04/12 08:51:18;;;;;;;1.80;1.70;;;;;;;20.69;58.80;98425.27;104315;1262;61064;-61
2023/04/12 08:53:47;;;;;;;1.60;1.50;;;;;;;20.72;59.14;98423.77;104294;1251;60880;-61
2023/04/12 08:56:20;;;;;;;1.90;1.70;;;;;;;20.80;59.51;98421.64;104332;1257;73243;-61
2023/04/12 08:58:49;;;;;;;3.40;1.60;;;;;;;20.91;58.49;98419.57;104357;1260;69681;-61
2023/04/12 09:01:19;;;;;;;1.60;1.50;;;;;;;20.92;58.71;98422.52;104581;1254;72484;-62
2023/04/12 09:03:50;;;;;;;1.80;1.70;;;;;;;20.97;58.20;98417.56;104409;1257;61126;-64
2023/04/12 09:06:19;;;;;;;2.80;1.60;;;;;;;21.02;58.44;98412.20;104387;1267;60014;-61
2023/04/12 09:08:55;;;;;;;1.50;1.40;;;;;;;21.08;57.82;98411.39;104284;1266;72944;-63
2023/04/12 09:11:30;;;;;;;2.20;1.50;;;;;;;21.07;57.78;98409.18;104309;1267;69557;-63
2023/04/12 09:13:59;;;;;;;1.50;1.40;;;;;;;21.09;57.94;98405.73;104379;1264;71836;-65
2023/04/12 09:16:41;;;;;;;2.00;1.70;;;;;;;21.09;58.50;98402.41;104216;1256;61171;-64
2023/04/12 09:19:11;;;;;;;2.00;1.70;;;;;;;21.07;58.65;98399.23;104418;1262;60462;-61
2023/04/12 09:21:54;;;;;;;3.00;1.60;;;;;;;21.04;58.68;98399.70;104357;1252;72935;-61
2023/04/12 09:24:23;;;;;;;1.80;1.50;;;;;;;21.08;58.69;98398.25;104328;1263;69035;-63
2023/04/12 09:27:01;;;;;;;1.50;1.40;;;;;;;21.08;58.25;98392.67;104493;1258;71902;-64
2023/04/12 09:29:30;;;;;;;1.70;1.60;;;;;;;21.13;58.00;98395.27;104283;1264;61883;-63
2023/04/12 09:32:04;;;;;;;1.70;1.50;;;;;;;21.15;58.48;98396.11;104306;1257;60633;-63
2023/04/12 09:34:34;;;;;;;1.80;1.50;;;;;;;21.17;58.11;98395.84;104302;1261;74102;-62
2023/04/12 09:37:15;;;;;;;2.00;1.90;;;;;;;21.20;58.20;98394.31;104432;1269;69753;-62
2023/04/12 09:40:00;;;;;;;1.60;1.50;;;;;;;21.26;58.17;98392.78;104300;1265;72305;-63
2023/04/12 09:42:30;;;;;;;1.60;1.40;;;;;;;21.29;58.30;98391.95;104396;1270;61369;-62
2023/04/12 09:45:21;;;;;;;1.90;1.70;;;;;;;21.34;57.55;98390.42;104312;1264;60478;-62
2023/04/12 09:47:51;;;;;;;1.60;1.50;;;;;;;21.36;57.90;98393.33;104333;1256;74427;-62
2023/04/12 09:50:25;;;;;;;1.60;1.50;;;;;;;21.35;57.94;98392.16;104325;1256;69793;-62
2023/04/12 09:52:57;;;;;;;1.30;1.20;;;;;;;21.39;57.88;98393.27;104247;1269;72000;-61
2023/04/12 09:55:28;;;;;;;1.50;1.40;;;;;;;21.45;57.61;98393.44;104254;1273;63162;-64
2023/04/12 09:57:59;;;;;;;1.80;1.20;;;;;;;21.50;57.89;98394.85;104444;1274;59784;-62
2023/04/12 10:00:30;;;;;;;1.30;1.20;;;;;;;21.56;57.76;98393.16;104267;1256;74392;-62
2023/04/12 10:03:00;;;;;;;4.10;1.50;;;;;;;21.63;57.33;98392.72;104265;1274;68824;-62
2023/04/12 10:05:29;;;;;;;1.50;1.40;;;;;;;21.62;57.55;98393.31;104349;1261;72579;-62
2023/04/12 10:07:59;;;;;;;1.60;1.50;;;;;;;21.63;57.31;98387.98;104338;1251;61139;-61
2023/04/12 10:10:30;;;;;;;1.40;1.30;;;;;;;21.62;57.45;98391.17;104293;1260;59935;-62
2023/04/12 10:12:59;;;;;;;1.10;1.10;;;;;;;21.61;57.61;98388.11;104301;1257;73317;-63
2023/04/12 10:15:36;;;;;;;2.20;1.60;;;;;;;21.61;57.73;98390.11;104309;1254;69485;-62
2023/04/12 10:18:08;;;;;;;1.60;1.50;;;;;;;21.59;57.98;98384.63;104355;1257;71935;-64
2023/04/12 10:20:37;;;;;;;1.60;1.50;;;;;;;21.59;58.15;98383.57;104338;1251;62072;-62
2023/04/12 10:23:06;;;;;;;1.40;1.30;;;;;;;21.61;58.14;98386.53;104277;1274;61594;-62
2023/04/12 10:25:41;;;;;;;1.50;1.40;;;;;;;21.66;58.72;98385.27;104369;1254;73268;-62
2023/04/12 10:28:15;;;;;;;1.80;1.70;;;;;;;21.71;57.70;98384.92;104297;1261;69486;-62
2023/04/12 10:30:48;;;;;;;1.60;1.50;;;;;;;21.73;57.45;98382.87;104402;1257;72873;-62
2023/04/12 10:33:32;;;;;;;2.50;1.60;;;;;;;21.73;57.73;98383.80;104336;1267;62051;-62
2023/04/12 10:36:11;;;;;;;1.90;1.30;;;;;;;21.74;57.56;98384.23;104342;1267;60552;-63
2023/04/12 10:39:07;;;;;;;1.50;1.40;;;;;;;21.74;57.16;98387.64;104241;1266;74226;-62
2023/04/12 10:41:37;;;;;;;1.90;1.60;;;;;;;21.72;57.40;98385.84;104366;1267;69733;-64
2023/04/12 10:44:25;;;;;;;1.50;1.40;;;;;;;21.68;57.53;98385.77;104317;1256;73246;-63
2023/04/12 10:46:54;;;;;;;3.30;1.50;;;;;;;21.71;57.59;98384.77;104460;1263;62075;-62
2023/04/12 10:49:23;;;;;;;1.60;1.50;;;;;;;21.66;57.48;98383.46;104263;1263;60331;-63
2023/04/12 10:51:59;;;;;;;1.60;1.50;;;;;;;21.62;57.79;98384.47;104482;1251;74001;-62
2023/04/12 10:54:30;;;;;;;1.80;1.70;;;;;;;21.60;57.86;98386.80;104309;1267;69708;-62
2023/04/12 10:56:59;;;;;;;2.00;1.50;;;;;;;21.52;57.97;98387.09;104324;1261;72199;-61
2023/04/12 10:59:58;;;;;;;1.70;1.60;;;;;;;21.49;58.41;98384.45;104274;1256;60698;-62
2023/04/12 11:02:27;;;;;;;1.70;1.60;;;;;;;21.56;58.78;98387.41;104458;1257;60485;-61
2023/04/12 11:05:08;;;;;;;1.50;1.40;;;;;;;21.59;58.49;98384.46;104524;1252;73634;-61
2023/04/12 11:08:15;;;;;;;;;;;;;;;21.65;58.16;98388.10;104183;1264;69433;-62
2023/04/12 11:11:02;;;;;;;2.10;1.70;;;;;;;21.63;58.56;98383.27;104270;1267;72011;-61
2023/04/12 11:13:35;;;;;;;1.50;1.40;;;;;;;21.56;58.52;98381.85;104213;1255;62030;-61
2023/04/12 11:16:06;;;;;;;1.90;1.40;;;;;;;21.54;58.17;98382.76;104304;1272;59868;-61
2023/04/12 11:18:35;;;;;;;2.30;1.80;;;;;;;21.56;57.91;98379.98;104343;1255;74356;-61
2023/04/12 11:21:04;;;;;;;1.70;1.60;;;;;;;21.61;58.37;98381.55;104397;1263;69801;-62
2023/04/12 11:23:42;;;;;;;2.00;1.80;;;;;;;21.66;57.97;98378.38;104240;1272;72888;-62
2023/04/12 11:26:10;;;;;;;1.40;1.30;;;;;;;21.72;58.02;98379.11;104319;1270;62661;-62
2023/04/12 11:28:39;;;;;;;1.80;1.50;;;;;;;21.74;57.78;98376.89;104224;1257;60453;-61
2023/04/12 11:31:07;;;;;;;1.70;1.60;;;;;;;21.72;58.28;98374.13;104278;1251;72652;-61
2023/04/12 11:33:40;;;;;;;1.70;1.60;;;;;;;21.75;58.15;98372.70;104412;1265;69740;-62
2023/04/12 11:36:13;;;;;;;3.20;1.50;;;;;;;21.75;58.32;98375.01;104385;1260;71931;-63
2023/04/12 11:38:42;;;;;;;2.40;2.00;;;;;;;21.79;58.62;98377.58;104235;1252;62066;-62
2023/04/12 11:41:13;;;;;;;1.80;1.70;;;;;;;21.79;58.75;98373.69;104229;1255;60447;-63
2023/04/12 11:43:43;;;;;;;1.80;1.70;;;;;;;21.80;58.75;98374.49;104343;1263;74082;-63
2023/04/12 11:46:11;;;;;;;1.80;1.70;;;;;;;21.84;58.60;98373.92;104276;1251;69736;-61
2023/04/12 11:48:46;;;;;;;1.60;1.50;;;;;;;21.84;58.30;98373.69;104308;1274;72724;-62
2023/04/12 11:51:26;;;;;;;1.80;1.60;;;;;;;21.85;58.97;98374.12;104343;1256;60776;-62